CW8593 Gava ES current weather conditions

sailwx.info

Wind from 277 at 13 knots gusting 22

Air temperature 6.1° C
Dewpoint -1.1° C

Last reported at 2015-Feb-01 21:43 UTC.
Time now 2015-Feb-01 22:45 UTC

Location: N 41°18' E 001°60'.
View on Google Maps.

See reports from other nearby stations

  
Tides and Currents Weather Stations Pressure Air Temp Water Temp Dewpoint Dewpoint Depression Visibility Wind Speed Wind Dir Waves Ship Positions
date/time (UTC)wind fromknots sea level pressurealtimeterstation pressurevisibilityair tempwater tempwave heightnotes
2015-Feb-01 21:43 277 13 gusting 22 6.1
2015-Feb-01 21:23 271 10 gusting 19 6.1
2015-Feb-01 21:13 6.1
2015-Feb-01 20:43 284 6 gusting 18 6.1
2015-Feb-01 20:23 269 11 gusting 17 6.1
2015-Feb-01 20:13 265 6 gusting 12 6.1
2015-Feb-01 20:03 274 7 gusting 14 6.1
2015-Feb-01 19:53 287 7 gusting 13 6.7
2015-Feb-01 19:43 289 9 gusting 18 6.7
2015-Feb-01 19:33 265 12 gusting 21 6.7
2015-Feb-01 19:23 302 11 gusting 19 6.7
2015-Feb-01 19:13 276 10 gusting 19 6.7
2015-Feb-01 19:03 294 9 gusting 18 6.7
2015-Feb-01 18:33 272 10 gusting 19 7.2
2015-Feb-01 18:23 286 11 gusting 19 7.2
2015-Feb-01 18:13 275 6 gusting 18 7.2
2015-Feb-01 17:53 259 6 gusting 13 7.8
2015-Feb-01 17:43 273 6 gusting 13 7.8
2015-Feb-01 17:33 273 9 gusting 17 8.3
2015-Feb-01 17:23 265 6 gusting 13 8.3
2015-Feb-01 17:13 261 7 gusting 14 8.3
2015-Feb-01 16:33 288 6 gusting 17 9.4
2015-Feb-01 16:23 263 10 gusting 15 10.0
2015-Feb-01 16:13 288 11 gusting 18 10.0
2015-Feb-01 15:53 287 10 gusting 17 10.0
2015-Feb-01 15:43 296 7 gusting 20 10.6
2015-Feb-01 15:23 267 9 gusting 21 10.6
2015-Feb-01 15:13 271 10 gusting 21 10.6
2015-Feb-01 14:53 281 6 gusting 19 11.1
2015-Feb-01 14:43 271 10 gusting 20 11.1
2015-Feb-01 14:33 298 6 gusting 14 11.1
2015-Feb-01 14:23 289 6 gusting 20 11.1
2015-Feb-01 13:43 255 9 gusting 22 11.1
2015-Feb-01 12:53 288 6 gusting 13 11.1
2015-Feb-01 12:43 259 7 gusting 14 10.6
2015-Feb-01 12:33 302 7 gusting 15 10.6
2015-Feb-01 12:23 283 2 gusting 13 10.6
2015-Feb-01 12:13 272 8 gusting 17 10.0
2015-Feb-01 12:03 268 10 gusting 18 10.0
2015-Feb-01 11:43 279 10 gusting 20 10.0
2015-Feb-01 11:33 301 6 gusting 17 10.0
2015-Feb-01 11:23 268 9 gusting 19 10.0
2015-Feb-01 11:13 336 8 gusting 17 9.4
2015-Feb-01 11:03 276 10 gusting 19 9.4
2015-Feb-01 10:53 277 13 gusting 19 8.9
2015-Feb-01 10:33 323 6 gusting 15 8.9
2015-Feb-01 10:23 311 8 gusting 17 8.3
2015-Feb-01 10:13 338 10 gusting 18 8.3
2015-Feb-01 09:53 320 7 gusting 17 8.3
2015-Feb-01 09:43 307 2 gusting 11 8.3
2015-Feb-01 09:33 347 0 gusting 10 7.8
2015-Feb-01 09:23 333 4 gusting 13 7.2
2015-Feb-01 09:13 324 5 gusting 19 7.2
2015-Feb-01 09:03 276 8 gusting 17 6.7
2015-Feb-01 08:53 287 9 gusting 21 6.7
2015-Feb-01 08:43 292 9 gusting 19 6.7
2015-Feb-01 08:23 285 10 gusting 19 6.1
2015-Feb-01 08:13 275 7 gusting 14 6.1
2015-Feb-01 07:53 322 2 gusting 12 6.1
2015-Feb-01 07:23 310 5 gusting 11 5.6
2015-Feb-01 07:13 322 8 gusting 19 5.6
2015-Feb-01 06:53 003 5 gusting 13 5.6
2015-Feb-01 06:33 301 10 gusting 24 5.6
2015-Feb-01 06:03 298 13 gusting 26 6.1
2015-Feb-01 05:43 289 10 gusting 20 6.1
2015-Feb-01 05:33 317 11 gusting 24 6.1
2015-Feb-01 05:23 302 8 gusting 27 6.1
2015-Feb-01 05:03 278 16 gusting 32 6.7
2015-Feb-01 04:53 286 17 gusting 27 6.7
2015-Feb-01 04:43 255 18 gusting 27 6.1
2015-Feb-01 04:33 279 22 gusting 38 6.1
2015-Feb-01 04:24 282 20 gusting 30 6.1
2015-Feb-01 04:13 273 19 gusting 30 5.6
2015-Feb-01 04:03 281 16 gusting 31 5.6
2015-Feb-01 03:53 296 14 gusting 28 6.1
2015-Feb-01 03:43 299 14 gusting 22 6.1
2015-Feb-01 03:23 299 13 gusting 21 6.7
2015-Feb-01 03:13 280 5 gusting 13 6.7
2015-Feb-01 02:53 143 5 gusting 11 6.7
2015-Feb-01 02:13 277 10 gusting 25 7.2
2015-Feb-01 02:03 283 14 gusting 28 7.2
2015-Feb-01 01:43 284 15 gusting 33 7.2
2015-Feb-01 01:33 283 15 gusting 33 7.2
2015-Feb-01 01:23 283 15 gusting 25 7.2
2015-Feb-01 01:13 6.7
2015-Feb-01 01:03 293 13 gusting 22 6.7
2015-Feb-01 00:43 288 13 gusting 26 6.7
2015-Feb-01 00:23 288 14 gusting 22 7.2
2015-Feb-01 00:13 262 13 gusting 22 7.2
2015-Feb-01 00:03 277 15 gusting 22 7.2
2015-Jan-31 23:53 295 11 gusting 19 7.2
2015-Jan-31 23:33 318 7 gusting 20 7.2
2015-Jan-31 23:23 275 13 gusting 20 7.2
2015-Jan-31 23:03 282 11 gusting 19 7.8
2015-Jan-31 22:53 271 10 gusting 20 7.2
2015-Jan-31 22:23 270 12 gusting 19 7.8
2015-Jan-31 22:13 277 13 gusting 21 7.8
2015-Jan-31 22:03 282 11 gusting 22 8.3
2015-Jan-31 21:53 303 12 gusting 20 7.8
2015-Jan-31 21:43 279 10 gusting 17 7.8
2015-Jan-31 21:13 355 6 gusting 15 8.3
2015-Jan-31 20:53 298 5 gusting 12 8.3
2015-Jan-31 20:13 284 8 gusting 19 8.9
2015-Jan-31 20:03 327 8 gusting 17 8.9
2015-Jan-31 19:33 283 12 gusting 21 9.4
2015-Jan-31 19:23 269 13 gusting 22 9.4
2015-Jan-31 18:53 283 13 gusting 24 10.0
2015-Jan-31 18:33 295 10 gusting 20 9.4
2015-Jan-31 18:23 273 10 gusting 20 10.0
2015-Jan-31 18:13 268 11 gusting 18 10.0
2015-Jan-31 18:03 274 6 gusting 13 10.0
2015-Jan-31 17:53 313 5 gusting 10 10.0
2015-Jan-31 17:43 271 2 gusting 12 10.0
2015-Jan-31 17:33 350 2 gusting 17 10.6
2015-Jan-31 17:23 10.6
2015-Jan-31 16:53 271 11 gusting 25 11.1
2015-Jan-31 16:43 265 15 gusting 25 11.1
2015-Jan-31 16:33 291 9 gusting 19 11.7
2015-Jan-31 16:23 258 8 gusting 19 11.7
2015-Jan-31 16:13 278 8 gusting 19 11.7
2015-Jan-31 16:03 277 6 gusting 19 12.2
2015-Jan-31 15:43 280 12 gusting 19 12.2
2015-Jan-31 15:33 261 8 gusting 18 12.8
2015-Jan-31 15:13 264 13 gusting 25 12.8
2015-Jan-31 15:03 271 12 gusting 24 12.8
2015-Jan-31 14:43 264 11 gusting 19 13.3
2015-Jan-31 14:33 272 14 gusting 22 13.3
2015-Jan-31 14:13 296 10 gusting 19 13.3
2015-Jan-31 13:53 269 7 gusting 17 13.3
2015-Jan-31 13:33 300 4 gusting 10 13.3
2015-Jan-31 13:23 263 4 gusting 15 12.8
2015-Jan-31 13:13 285 10 gusting 18 12.8
2015-Jan-31 12:43 246 6 gusting 10 12.2
2015-Jan-31 12:33 245 5 gusting 14 12.8
2015-Jan-31 12:23 240 3 gusting 10 12.8
2015-Jan-31 12:03 302 2 gusting 8 12.8
2015-Jan-31 11:53 273 4 gusting 7 12.2
2015-Jan-31 11:33 345 4 gusting 8 12.2
2015-Jan-31 11:13 350 3 gusting 12 11.7
2015-Jan-31 11:03 296 4 gusting 10 11.7
2015-Jan-31 10:53 287 7 gusting 12 11.1
2015-Jan-31 10:43 306 7 gusting 11 10.6
2015-Jan-31 10:33 281 5 gusting 7 10.0
2015-Jan-31 10:13 317 4 gusting 10 10.0
2015-Jan-31 10:03 335 3 gusting 10 10.0
2015-Jan-31 09:43 338 1 gusting 8 10.0
2015-Jan-31 09:33 015 6 gusting 12 10.0
2015-Jan-31 09:13 329 2 gusting 7 9.4
2015-Jan-31 08:33 247 9.4
2015-Jan-31 08:23 246 9.4
2015-Jan-31 07:43 037 2 gusting 5 9.4
2015-Jan-31 07:33 051 9.4
2015-Jan-31 07:23 325 1 gusting 8 9.4
2015-Jan-31 07:13 290 0 gusting 4 9.4
2015-Jan-31 07:03 047 0 gusting 4 9.4
2015-Jan-31 06:53 046 9.4
2015-Jan-31 06:43 046 1 gusting 4 9.4
2015-Jan-31 06:33 044 0 gusting 6 9.4
2015-Jan-31 06:13 330 6 gusting 14 9.4
2015-Jan-31 06:03 346 1 gusting 6 9.4
2015-Jan-31 05:53 121 0 gusting 6 8.9
2015-Jan-31 05:43 278 0 gusting 7 8.3
2015-Jan-31 05:13 350 7.8
2015-Jan-31 05:03 350 7.8
2015-Jan-31 04:43 349 7.8
2015-Jan-31 04:33 350 0 gusting 2 7.8
2015-Jan-31 04:23 349 7.8
2015-Jan-31 04:03 349 8.3
2015-Jan-31 03:53 350 0 gusting 4 8.3
2015-Jan-31 03:33 350 0 gusting 2 8.3
2015-Jan-31 03:03 041 8.9
2015-Jan-31 02:53 041 8.9
2015-Jan-31 02:43 8.9
2015-Jan-31 02:23 005 1 gusting 5 8.3
2015-Jan-31 02:13 005 3 gusting 5 8.3
2015-Jan-31 02:03 345 2 gusting 5 8.3
2015-Jan-31 01:53 275 8.3
2015-Jan-31 01:43 275 8.3
2015-Jan-31 01:23 275 8.3
2015-Jan-31 01:13 275 8.3
2015-Jan-31 00:43 275 0 gusting 1 8.3
2015-Jan-31 00:33 275 8.3
2015-Jan-31 00:13 275 8.3
2015-Jan-30 23:43 275 8.9
2015-Jan-30 23:33 275 8.9
2015-Jan-30 23:13 275 8.9
2015-Jan-30 22:43 275 0 gusting 4 8.9
2015-Jan-30 22:33 275 1 gusting 4 8.9
2015-Jan-30 22:23 275 0 gusting 5 8.9
2015-Jan-30 22:13 275 0 gusting 2 9.4